sensor_id;sensor_type;location;lat;lon;timestamp;pressure;altitude;pressure_sealevel;temperature;humidity
37170;BME280;23062;13.952;100.608;2022-09-02T00:00:54;750.06;;;-142.63;85.12
37170;BME280;23062;13.952;100.608;2022-09-02T00:05:46;750.05;;;-142.63;85.54
37170;BME280;23062;13.952;100.608;2022-09-02T00:10:37;750.08;;;-142.63;84.18
37170;BME280;23062;13.952;100.608;2022-09-02T00:15:27;750.07;;;-142.63;84.43
37170;BME280;23062;13.952;100.608;2022-09-02T00:20:17;750.08;;;-142.63;84.53
37170;BME280;23062;13.952;100.608;2022-09-02T00:25:08;750.04;;;-142.63;83.96
37170;BME280;23062;13.952;100.608;2022-09-02T00:29:57;750.06;;;-142.63;84.30
37170;BME280;23062;13.952;100.608;2022-09-02T00:34:47;749.93;;;-142.63;83.42
37170;BME280;23062;13.952;100.608;2022-09-02T00:39:37;749.95;;;-142.63;83.03
37170;BME280;23062;13.952;100.608;2022-09-02T00:44:27;750.06;;;-142.63;83.48
37170;BME280;23062;13.952;100.608;2022-09-02T00:49:32;750.09;;;-142.63;83.10
37170;BME280;23062;13.952;100.608;2022-09-02T00:54:20;750.13;;;-142.63;83.56
37170;BME280;23062;13.952;100.608;2022-09-02T00:59:16;750.14;;;-142.63;82.79
37170;BME280;23062;13.952;100.608;2022-09-02T01:04:08;750.22;;;-142.63;83.24
37170;BME280;23062;13.952;100.608;2022-09-02T01:09:02;750.18;;;-142.63;83.03
37170;BME280;23062;13.952;100.608;2022-09-02T01:13:50;750.17;;;-142.63;83.06
37170;BME280;23062;13.952;100.608;2022-09-02T01:18:41;750.08;;;-142.63;82.23
37170;BME280;23062;13.952;100.608;2022-09-02T01:23:32;750.08;;;-142.63;82.58
37170;BME280;23062;13.952;100.608;2022-09-02T01:28:23;750.04;;;-142.63;82.45
37170;BME280;23062;13.952;100.608;2022-09-02T01:33:12;749.97;;;-142.63;82.37
37170;BME280;23062;13.952;100.608;2022-09-02T01:38:03;749.91;;;-142.63;81.86
37170;BME280;23062;13.952;100.608;2022-09-02T01:42:58;749.98;;;-142.63;81.11
37170;BME280;23062;13.952;100.608;2022-09-02T01:47:51;749.91;;;-142.63;81.22
37170;BME280;23062;13.952;100.608;2022-09-02T01:52:42;749.81;;;-142.63;81.58
37170;BME280;23062;13.952;100.608;2022-09-02T01:57:32;749.83;;;-142.63;80.57
37170;BME280;23062;13.952;100.608;2022-09-02T02:02:24;749.81;;;-142.63;80.59
37170;BME280;23062;13.952;100.608;2022-09-02T02:07:15;749.73;;;-142.63;80.77
37170;BME280;23062;13.952;100.608;2022-09-02T02:12:06;749.80;;;-142.63;81.20
37170;BME280;23062;13.952;100.608;2022-09-02T02:16:55;749.69;;;-142.63;81.97
37170;BME280;23062;13.952;100.608;2022-09-02T02:21:45;749.59;;;-142.63;80.80
37170;BME280;23062;13.952;100.608;2022-09-02T02:26:36;749.58;;;-142.63;80.91
37170;BME280;23062;13.952;100.608;2022-09-02T02:31:27;749.50;;;-142.63;80.08
37170;BME280;23062;13.952;100.608;2022-09-02T02:36:17;749.46;;;-142.63;79.80
37170;BME280;23062;13.952;100.608;2022-09-02T02:41:08;749.41;;;-142.63;78.51
37170;BME280;23062;13.952;100.608;2022-09-02T02:45:58;749.39;;;-142.63;78.10
37170;BME280;23062;13.952;100.608;2022-09-02T02:50:49;749.35;;;-142.63;76.90
37170;BME280;23062;13.952;100.608;2022-09-02T02:55:39;749.31;;;-142.63;76.52
37170;BME280;23062;13.952;100.608;2022-09-02T03:00:30;749.29;;;-142.63;75.67
37170;BME280;23062;13.952;100.608;2022-09-02T03:05:21;749.25;;;-142.63;75.09
37170;BME280;23062;13.952;100.608;2022-09-02T03:10:12;749.14;;;-142.63;74.73
37170;BME280;23062;13.952;100.608;2022-09-02T03:15:02;749.12;;;-142.63;74.02
37170;BME280;23062;13.952;100.608;2022-09-02T03:19:52;749.00;;;-142.63;73.39
37170;BME280;23062;13.952;100.608;2022-09-02T03:24:43;748.97;;;-142.63;73.08
37170;BME280;23062;13.952;100.608;2022-09-02T03:29:33;748.98;;;-142.63;74.16
37170;BME280;23062;13.952;100.608;2022-09-02T03:34:23;748.82;;;-142.63;73.22
37170;BME280;23062;13.952;100.608;2022-09-02T03:39:13;748.76;;;-142.63;71.56
37170;BME280;23062;13.952;100.608;2022-09-02T03:44:03;748.77;;;-142.63;71.19
37170;BME280;23062;13.952;100.608;2022-09-02T03:48:53;748.81;;;-142.63;72.72
37170;BME280;23062;13.952;100.608;2022-09-02T03:53:43;748.61;;;-142.63;72.77
37170;BME280;23062;13.952;100.608;2022-09-02T03:58:35;748.41;;;-142.63;72.95
37170;BME280;23062;13.952;100.608;2022-09-02T04:03:25;748.39;;;-142.63;72.24
37170;BME280;23062;13.952;100.608;2022-09-02T04:08:14;748.34;;;-142.63;72.27
37170;BME280;23062;13.952;100.608;2022-09-02T04:13:04;748.29;;;-142.63;72.32
37170;BME280;23062;13.952;100.608;2022-09-02T04:17:54;748.27;;;-142.63;72.61
37170;BME280;23062;13.952;100.608;2022-09-02T04:22:44;748.26;;;-142.63;72.52
37170;BME280;23062;13.952;100.608;2022-09-02T04:27:35;748.21;;;-142.63;72.84
37170;BME280;23062;13.952;100.608;2022-09-02T04:32:25;748.15;;;-142.63;72.32
37170;BME280;23062;13.952;100.608;2022-09-02T04:37:16;748.09;;;-142.63;71.69
37170;BME280;23062;13.952;100.608;2022-09-02T04:42:06;747.94;;;-142.63;71.38
37170;BME280;23062;13.952;100.608;2022-09-02T04:46:55;747.91;;;-142.63;71.19
37170;BME280;23062;13.952;100.608;2022-09-02T04:51:45;747.95;;;-142.63;70.60
37170;BME280;23062;13.952;100.608;2022-09-02T04:56:35;747.88;;;-142.63;68.97
37170;BME280;23062;13.952;100.608;2022-09-02T05:01:27;747.76;;;-142.63;69.21
37170;BME280;23062;13.952;100.608;2022-09-02T05:06:23;747.65;;;-142.63;67.67
37170;BME280;23062;13.952;100.608;2022-09-02T05:11:19;747.55;;;-142.63;67.61
37170;BME280;23062;13.952;100.608;2022-09-02T05:16:09;747.42;;;-142.63;67.21
37170;BME280;23062;13.952;100.608;2022-09-02T05:21:02;747.27;;;-142.63;67.09
37170;BME280;23062;13.952;100.608;2022-09-02T05:25:50;747.30;;;-142.63;67.83
37170;BME280;23062;13.952;100.608;2022-09-02T05:30:41;747.21;;;-142.63;67.73
37170;BME280;23062;13.952;100.608;2022-09-02T05:35:31;747.15;;;-142.63;67.13
37170;BME280;23062;13.952;100.608;2022-09-02T05:40:21;747.00;;;-142.63;66.69
37170;BME280;23062;13.952;100.608;2022-09-02T05:45:11;746.89;;;-142.63;66.79
37170;BME280;23062;13.952;100.608;2022-09-02T05:50:04;746.71;;;-142.63;65.89
37170;BME280;23062;13.952;100.608;2022-09-02T05:54:54;746.50;;;-142.63;64.27
37170;BME280;23062;13.952;100.608;2022-09-02T05:59:44;746.45;;;-142.63;64.95
37170;BME280;23062;13.952;100.608;2022-09-02T06:04:40;746.28;;;-142.63;65.06
37170;BME280;23062;13.952;100.608;2022-09-02T06:09:32;746.30;;;-142.63;65.25
37170;BME280;23062;13.952;100.608;2022-09-02T06:14:23;746.13;;;-142.63;64.40
37170;BME280;23062;13.952;100.608;2022-09-02T06:19:14;746.09;;;-142.63;64.01
37170;BME280;23062;13.952;100.608;2022-09-02T06:24:08;746.10;;;-142.63;64.85
37170;BME280;23062;13.952;100.608;2022-09-02T06:28:59;746.03;;;-142.63;64.46
37170;BME280;23062;13.952;100.608;2022-09-02T06:33:51;745.84;;;-142.63;63.39
37170;BME280;23062;13.952;100.608;2022-09-02T06:38:42;745.88;;;-142.63;63.06
37170;BME280;23062;13.952;100.608;2022-09-02T06:43:32;745.75;;;-142.63;62.70
37170;BME280;23062;13.952;100.608;2022-09-02T06:48:24;745.63;;;-142.63;61.67
37170;BME280;23062;13.952;100.608;2022-09-02T06:53:15;745.84;;;-142.63;63.05
37170;BME280;23062;13.952;100.608;2022-09-02T06:58:06;745.54;;;-142.63;62.58
37170;BME280;23062;13.952;100.608;2022-09-02T07:03:01;745.27;;;-142.63;63.42
37170;BME280;23062;13.952;100.608;2022-09-02T07:08:12;745.15;;;-142.63;63.73
37170;BME280;23062;13.952;100.608;2022-09-02T07:13:02;745.13;;;-142.63;63.68
37170;BME280;23062;13.952;100.608;2022-09-02T07:17:52;745.16;;;-142.63;63.55
37170;BME280;23062;13.952;100.608;2022-09-02T07:22:41;745.13;;;-142.63;63.79
37170;BME280;23062;13.952;100.608;2022-09-02T07:27:32;745.01;;;-142.63;63.68
37170;BME280;23062;13.952;100.608;2022-09-02T07:32:22;745.03;;;-142.63;63.79
37170;BME280;23062;13.952;100.608;2022-09-02T07:37:12;744.91;;;-142.63;63.74
37170;BME280;23062;13.952;100.608;2022-09-02T07:42:02;744.75;;;-142.63;63.66
37170;BME280;23062;13.952;100.608;2022-09-02T07:46:53;744.53;;;-142.63;62.71
37170;BME280;23062;13.952;100.608;2022-09-02T07:51:45;744.42;;;-142.63;62.12
37170;BME280;23062;13.952;100.608;2022-09-02T07:56:39;744.37;;;-142.63;63.68
37170;BME280;23062;13.952;100.608;2022-09-02T08:01:30;744.39;;;-142.63;64.50
37170;BME280;23062;13.952;100.608;2022-09-02T08:06:21;744.40;;;-142.63;65.11
37170;BME280;23062;13.952;100.608;2022-09-02T08:11:12;744.35;;;-142.63;65.01
37170;BME280;23062;13.952;100.608;2022-09-02T08:16:03;744.40;;;-142.63;64.88
37170;BME280;23062;13.952;100.608;2022-09-02T08:20:53;744.46;;;-142.63;65.18
37170;BME280;23062;13.952;100.608;2022-09-02T08:25:43;744.49;;;-142.63;64.92
37170;BME280;23062;13.952;100.608;2022-09-02T08:30:33;744.73;;;-142.63;66.26
37170;BME280;23062;13.952;100.608;2022-09-02T08:35:23;744.69;;;-142.63;66.30
37170;BME280;23062;13.952;100.608;2022-09-02T08:40:18;744.62;;;-142.63;65.89
37170;BME280;23062;13.952;100.608;2022-09-02T08:45:32;744.62;;;-142.63;65.22
37170;BME280;23062;13.952;100.608;2022-09-02T08:50:25;744.92;;;-142.63;65.57
37170;BME280;23062;13.952;100.608;2022-09-02T08:55:23;745.12;;;-142.63;67.66
37170;BME280;23062;13.952;100.608;2022-09-02T09:00:14;745.02;;;-142.63;71.09
37170;BME280;23062;13.952;100.608;2022-09-02T09:10:12;745.06;;;-142.63;75.22
37170;BME280;23062;13.952;100.608;2022-09-02T09:15:43;745.16;;;-142.63;73.27
37170;BME280;23062;13.952;100.608;2022-09-02T09:20:39;745.22;;;-142.63;71.51
37170;BME280;23062;13.952;100.608;2022-09-02T09:25:27;745.35;;;-142.63;70.81
37170;BME280;23062;13.952;100.608;2022-09-02T09:30:17;745.41;;;-142.63;68.62
37170;BME280;23062;13.952;100.608;2022-09-02T09:35:09;745.40;;;-142.63;68.00
37170;BME280;23062;13.952;100.608;2022-09-02T09:39:59;745.52;;;-142.63;68.07
37170;BME280;23062;13.952;100.608;2022-09-02T09:44:50;745.63;;;-142.63;68.64
37170;BME280;23062;13.952;100.608;2022-09-02T09:49:40;745.58;;;-142.63;68.96
37170;BME280;23062;13.952;100.608;2022-09-02T09:54:31;745.43;;;-142.63;69.42
37170;BME280;23062;13.952;100.608;2022-09-02T09:59:35;745.26;;;-142.63;69.56
37170;BME280;23062;13.952;100.608;2022-09-02T10:04:32;745.23;;;-142.63;69.62
37170;BME280;23062;13.952;100.608;2022-09-02T10:09:33;745.25;;;-142.63;69.95
37170;BME280;23062;13.952;100.608;2022-09-02T10:19:43;745.29;;;-142.63;70.29
37170;BME280;23062;13.952;100.608;2022-09-02T10:30:03;745.39;;;-142.63;71.03
37170;BME280;23062;13.952;100.608;2022-09-02T10:35:10;745.45;;;-142.63;70.92
37170;BME280;23062;13.952;100.608;2022-09-02T10:40:14;745.56;;;-142.63;70.58
37170;BME280;23062;13.952;100.608;2022-09-02T10:45:33;745.55;;;-142.63;71.47
37170;BME280;23062;13.952;100.608;2022-09-02T10:50:33;745.46;;;-142.63;71.83
37170;BME280;23062;13.952;100.608;2022-09-02T11:00:23;745.57;;;-142.63;70.80
37170;BME280;23062;13.952;100.608;2022-09-02T11:05:24;745.60;;;-142.63;68.66
37170;BME280;23062;13.952;100.608;2022-09-02T11:10:21;745.75;;;-142.63;68.33
37170;BME280;23062;13.952;100.608;2022-09-02T11:15:28;745.97;;;-142.63;68.64
37170;BME280;23062;13.952;100.608;2022-09-02T11:20:25;745.96;;;-142.63;68.86
37170;BME280;23062;13.952;100.608;2022-09-02T11:25:14;745.75;;;-142.63;68.78
37170;BME280;23062;13.952;100.608;2022-09-02T11:30:11;745.74;;;-142.63;68.70
37170;BME280;23062;13.952;100.608;2022-09-02T11:35:03;745.88;;;-142.63;68.91
37170;BME280;23062;13.952;100.608;2022-09-02T11:39:59;746.00;;;-142.63;69.05
37170;BME280;23062;13.952;100.608;2022-09-02T11:55:09;745.93;;;-142.63;69.23
37170;BME280;23062;13.952;100.608;2022-09-02T12:00:02;746.02;;;-142.63;69.54
37170;BME280;23062;13.952;100.608;2022-09-02T12:04:51;746.07;;;-142.63;69.88
37170;BME280;23062;13.952;100.608;2022-09-02T12:09:46;746.17;;;-142.63;70.54
37170;BME280;23062;13.952;100.608;2022-09-02T12:19:43;746.39;;;-142.63;71.53
37170;BME280;23062;13.952;100.608;2022-09-02T12:24:47;746.42;;;-142.63;71.67
37170;BME280;23062;13.952;100.608;2022-09-02T12:29:31;746.55;;;-142.63;72.04
37170;BME280;23062;13.952;100.608;2022-09-02T12:49:27;746.79;;;-142.63;73.45
37170;BME280;23062;13.952;100.608;2022-09-02T12:54:20;746.82;;;-142.63;74.11
37170;BME280;23062;13.952;100.608;2022-09-02T12:59:09;746.70;;;-142.63;73.86
37170;BME280;23062;13.952;100.608;2022-09-02T13:04:17;746.78;;;-142.63;74.00
37170;BME280;23062;13.952;100.608;2022-09-02T13:09:14;746.74;;;-142.63;73.72
37170;BME280;23062;13.952;100.608;2022-09-02T13:24:51;747.02;;;-142.63;74.43
37170;BME280;23062;13.952;100.608;2022-09-02T13:30:05;747.07;;;-142.63;74.60
37170;BME280;23062;13.952;100.608;2022-09-02T13:34:58;747.12;;;-142.63;74.77
37170;BME280;23062;13.952;100.608;2022-09-02T13:39:47;747.11;;;-142.63;74.87
37170;BME280;23062;13.952;100.608;2022-09-02T13:44:37;747.11;;;-142.63;74.91
37170;BME280;23062;13.952;100.608;2022-09-02T13:49:32;747.22;;;-142.63;75.23
37170;BME280;23062;13.952;100.608;2022-09-02T13:54:31;747.31;;;-142.63;75.42
37170;BME280;23062;13.952;100.608;2022-09-02T13:59:32;747.33;;;-142.63;75.29
37170;BME280;23062;13.952;100.608;2022-09-02T14:04:22;747.41;;;-142.63;75.53
37170;BME280;23062;13.952;100.608;2022-09-02T14:09:20;747.42;;;-142.63;75.65
37170;BME280;23062;13.952;100.608;2022-09-02T14:14:19;747.47;;;-142.63;75.72
37170;BME280;23062;13.952;100.608;2022-09-02T14:24:10;747.66;;;-142.63;76.06
37170;BME280;23062;13.952;100.608;2022-09-02T14:29:01;747.64;;;-142.63;76.00
37170;BME280;23062;13.952;100.608;2022-09-02T14:33:51;747.70;;;-142.63;76.11
37170;BME280;23062;13.952;100.608;2022-09-02T14:39:08;747.74;;;-142.63;76.23
37170;BME280;23062;13.952;100.608;2022-09-02T14:43:58;747.70;;;-142.63;76.05
37170;BME280;23062;13.952;100.608;2022-09-02T14:48:57;747.72;;;-142.63;76.29
37170;BME280;23062;13.952;100.608;2022-09-02T14:53:47;747.79;;;-142.63;76.23
37170;BME280;23062;13.952;100.608;2022-09-02T14:58:37;747.84;;;-142.63;76.32
37170;BME280;23062;13.952;100.608;2022-09-02T15:03:28;747.86;;;-142.63;76.30
37170;BME280;23062;13.952;100.608;2022-09-02T15:08:18;747.89;;;-142.63;76.47
37170;BME280;23062;13.952;100.608;2022-09-02T15:13:13;747.83;;;-142.63;76.49
37170;BME280;23062;13.952;100.608;2022-09-02T15:18:03;747.86;;;-142.63;76.82
37170;BME280;23062;13.952;100.608;2022-09-02T15:22:53;747.84;;;-142.63;76.55
37170;BME280;23062;13.952;100.608;2022-09-02T15:27:44;747.78;;;-142.63;76.61
37170;BME280;23062;13.952;100.608;2022-09-02T15:32:34;747.73;;;-142.63;76.49
37170;BME280;23062;13.952;100.608;2022-09-02T15:37:24;747.68;;;-142.63;76.63
37170;BME280;23062;13.952;100.608;2022-09-02T15:42:15;747.69;;;-142.63;76.79
37170;BME280;23062;13.952;100.608;2022-09-02T15:47:06;747.63;;;-142.63;76.60
37170;BME280;23062;13.952;100.608;2022-09-02T15:51:57;747.64;;;-142.63;76.85
37170;BME280;23062;13.952;100.608;2022-09-02T15:56:48;747.62;;;-142.63;76.84
37170;BME280;23062;13.952;100.608;2022-09-02T16:01:42;747.67;;;-142.63;76.90
37170;BME280;23062;13.952;100.608;2022-09-02T16:06:33;747.65;;;-142.63;76.87
37170;BME280;23062;13.952;100.608;2022-09-02T16:11:24;747.62;;;-142.63;76.84
37170;BME280;23062;13.952;100.608;2022-09-02T16:16:15;747.67;;;-142.63;77.07
37170;BME280;23062;13.952;100.608;2022-09-02T16:21:07;747.67;;;-142.63;77.06
37170;BME280;23062;13.952;100.608;2022-09-02T16:26:11;747.65;;;-142.63;77.03
37170;BME280;23062;13.952;100.608;2022-09-02T16:31:01;747.66;;;-142.63;77.00
37170;BME280;23062;13.952;100.608;2022-09-02T16:35:51;747.61;;;-142.63;77.03
37170;BME280;23062;13.952;100.608;2022-09-02T16:40:51;747.57;;;-142.63;76.94
37170;BME280;23062;13.952;100.608;2022-09-02T16:45:37;747.57;;;-142.63;76.92
37170;BME280;23062;13.952;100.608;2022-09-02T16:50:27;747.55;;;-142.63;76.88
37170;BME280;23062;13.952;100.608;2022-09-02T16:55:17;747.59;;;-142.63;76.91
37170;BME280;23062;13.952;100.608;2022-09-02T17:00:07;747.57;;;-142.63;76.90
37170;BME280;23062;13.952;100.608;2022-09-02T17:04:58;747.61;;;-142.63;77.05
37170;BME280;23062;13.952;100.608;2022-09-02T17:09:48;747.45;;;-142.63;76.84
37170;BME280;23062;13.952;100.608;2022-09-02T17:14:38;747.48;;;-142.63;77.11
37170;BME280;23062;13.952;100.608;2022-09-02T17:19:28;747.41;;;-142.63;77.08
37170;BME280;23062;13.952;100.608;2022-09-02T17:24:20;747.42;;;-142.63;77.01
37170;BME280;23062;13.952;100.608;2022-09-02T17:29:12;747.35;;;-142.63;77.15
37170;BME280;23062;13.952;100.608;2022-09-02T17:34:07;747.32;;;-142.63;77.12
37170;BME280;23062;13.952;100.608;2022-09-02T17:38:59;747.28;;;-142.63;76.95
37170;BME280;23062;13.952;100.608;2022-09-02T17:43:49;747.27;;;-142.63;77.25
37170;BME280;23062;13.952;100.608;2022-09-02T17:48:38;747.23;;;-142.63;77.16
37170;BME280;23062;13.952;100.608;2022-09-02T17:53:28;747.16;;;-142.63;77.03
37170;BME280;23062;13.952;100.608;2022-09-02T17:58:19;747.15;;;-142.63;77.66
37170;BME280;23062;13.952;100.608;2022-09-02T18:03:34;747.09;;;-142.63;77.86
37170;BME280;23062;13.952;100.608;2022-09-02T18:13:31;746.96;;;-142.63;78.18
37170;BME280;23062;13.952;100.608;2022-09-02T18:18:19;746.98;;;-142.63;78.09
37170;BME280;23062;13.952;100.608;2022-09-02T18:23:32;746.95;;;-142.63;78.58
37170;BME280;23062;13.952;100.608;2022-09-02T18:49:11;746.78;;;-142.63;79.03
37170;BME280;23062;13.952;100.608;2022-09-02T18:59:11;746.71;;;-142.63;79.24
37170;BME280;23062;13.952;100.608;2022-09-02T19:04:01;746.60;;;-142.63;79.29
37170;BME280;23062;13.952;100.608;2022-09-02T19:09:00;746.52;;;-142.63;79.27
37170;BME280;23062;13.952;100.608;2022-09-02T19:13:58;746.52;;;-142.63;79.39
37170;BME280;23062;13.952;100.608;2022-09-02T19:18:43;746.47;;;-142.63;79.34
37170;BME280;23062;13.952;100.608;2022-09-02T19:23:34;746.48;;;-142.63;78.59
37170;BME280;23062;13.952;100.608;2022-09-02T19:28:25;746.49;;;-142.63;79.18
37170;BME280;23062;13.952;100.608;2022-09-02T19:33:15;746.50;;;-142.63;79.58
37170;BME280;23062;13.952;100.608;2022-09-02T19:38:06;746.42;;;-142.63;79.22
37170;BME280;23062;13.952;100.608;2022-09-02T19:42:56;746.42;;;-142.63;79.33
37170;BME280;23062;13.952;100.608;2022-09-02T19:47:46;746.43;;;-142.63;79.78
37170;BME280;23062;13.952;100.608;2022-09-02T19:52:45;746.47;;;-142.63;79.54
37170;BME280;23062;13.952;100.608;2022-09-02T19:57:42;746.46;;;-142.63;79.50
37170;BME280;23062;13.952;100.608;2022-09-02T20:02:32;746.49;;;-142.63;79.58
37170;BME280;23062;13.952;100.608;2022-09-02T20:07:22;746.49;;;-142.63;79.58
37170;BME280;23062;13.952;100.608;2022-09-02T20:12:12;746.47;;;-142.63;79.54
37170;BME280;23062;13.952;100.608;2022-09-02T20:17:04;746.49;;;-142.63;79.42
37170;BME280;23062;13.952;100.608;2022-09-02T20:21:54;746.48;;;-142.63;78.58
37170;BME280;23062;13.952;100.608;2022-09-02T20:47:39;746.54;;;-142.63;82.00
37170;BME280;23062;13.952;100.608;2022-09-02T21:03:05;746.66;;;-142.63;83.67
37170;BME280;23062;13.952;100.608;2022-09-02T21:08:13;746.71;;;-142.63;85.01
37170;BME280;23062;13.952;100.608;2022-09-02T21:28:56;746.83;;;-142.63;85.12
37170;BME280;23062;13.952;100.608;2022-09-02T21:33:45;746.73;;;-142.63;83.78
37170;BME280;23062;13.952;100.608;2022-09-02T21:38:41;746.67;;;-142.63;84.64
37170;BME280;23062;13.952;100.608;2022-09-02T21:59:18;746.73;;;-142.63;84.44
37170;BME280;23062;13.952;100.608;2022-09-02T22:04:23;746.85;;;-142.63;85.22
37170;BME280;23062;13.952;100.608;2022-09-02T22:09:26;746.95;;;-142.63;85.76
37170;BME280;23062;13.952;100.608;2022-09-02T22:19:23;747.47;;;-142.63;90.20
37170;BME280;23062;13.952;100.608;2022-09-02T22:24:17;747.40;;;-142.63;89.18
37170;BME280;23062;13.952;100.608;2022-09-02T22:29:13;747.39;;;-142.63;88.44
37170;BME280;23062;13.952;100.608;2022-09-02T22:34:05;747.34;;;-142.63;87.97
37170;BME280;23062;13.952;100.608;2022-09-02T22:38:55;747.39;;;-142.63;87.73
37170;BME280;23062;13.952;100.608;2022-09-02T22:43:48;747.50;;;-142.63;87.68
37170;BME280;23062;13.952;100.608;2022-09-02T22:48:41;747.49;;;-142.63;87.46
37170;BME280;23062;13.952;100.608;2022-09-02T22:53:52;747.56;;;-142.63;87.96
37170;BME280;23062;13.952;100.608;2022-09-02T23:04:13;747.61;;;-142.63;88.10
37170;BME280;23062;13.952;100.608;2022-09-02T23:09:02;747.58;;;-142.63;87.74
37170;BME280;23062;13.952;100.608;2022-09-02T23:19:02;747.63;;;-142.63;87.88
37170;BME280;23062;13.952;100.608;2022-09-02T23:24:06;747.65;;;-142.63;87.92
37170;BME280;23062;13.952;100.608;2022-09-02T23:39:11;748.24;;;-142.63;93.37
37170;BME280;23062;13.952;100.608;2022-09-02T23:43:56;748.41;;;-142.63;95.18
37170;BME280;23062;13.952;100.608;2022-09-02T23:49:11;748.43;;;-142.63;94.75
